LIBQ  Monte Scuro Airport

Add Bookmark

Italy

Status
Operational
Latitude Longitude
39° 19' 12" N 16° 22' 47" E
39.320000 16.380000
Local (DST + 2) UTC (GMT + 1)
Sep 1, 2014 03:37 Sep 1, 2014 13:37
Sunrise-Sunset Local UTC
Begin Civil Twilight 05:54 03:54
Sunrise 06:21 04:21
Sunset 07:26 17:26
End Civil Twilight 07:54 17:54

Current Weather

METAR Observed VFR
LIBQ 011255Z 24020KT 9999 FEW004TCU SCT006 15/14 Q1012 Mon, Sep 1, 2014 @ 12:55 UTC
(42 Minutes ago)
Visual Flight Rules
Wind Visibility Clouds Conditions
240° at 20 knots (37 kph) 10 km or more
  • Few at 400' AGL
  • Scattered at 600' AGL
  • No significant weather
Temperatures Readings Precipitation
Current Temp 15°C (59°F)
Dewpoint 14°C (57°F)
Humidity 94%
Altimeter 29.88"Hg
Sea Level Pressure 1012mb
Field Elevation 5643.04'
None Recorded

Additional weather within a 92.6km radius of LIBQ

Map ICAO Location
LICA 47.6km S (195°)
LIBC 70.2km E (121°)

24 Hour Weather History

Loading
-

24 Hour Weather Graphs

Loading
-

CheckWX.com is intended as a tool to help pilots better visualize weather data. It is not intended as a substitute for an official weather briefing obtained from a Flight Service Station. CheckWX.com does not meet the FAA requirements for an official pre-flight weather briefing. Therefore, it's important that pilots still call and obtain an official FSS pre-flight weather briefing.